Oslo, Norway

11:15 AM CEST on July 04, 2015 (GMT +0200)
Kikut | | Change Station
CLOSE
Current Station
Personal Weather Station
Location: Oslo, OSLO
Elevation: 1158 ft
Nearby Weather Stations

Elev 1158 ft 60.08 °N, 10.66 °E | Updated 11 minutes ago

Mostly Cloudy
Mostly Cloudy
72.7 °F
Feels Like 76 °F
N
3.0
Wind Variable Wind from East
Gusts 4.0 mph

Today
High -- | Low -- °F
--% Chance of Precip.
Yesterday
High -- | Low -- °F
Precip. -- in
4:00 AM 10:40 PM
Waning Gibbous, 93% visible
Pressure 30.15 in
Visibility 6.2 miles
Clouds Mostly Cloudy 3400 ft
Heat Index 76 °F
Dew Point 61 °F
Humidity 66%
Rainfall 0.00 in
Snow Depth Not available.
UV 3 out of 12
Pollen Not available.
Air Quality Not available.
Flu Activity Not available.
METAR ENGM 040850Z 04005KT 300V080 9999 BKN034 22/14 Q1021 NOSIG

More Conditions Fewer Conditions

Pressure 30.15 in
Visibility 6.2 miles
Clouds Mostly Cloudy 3400 ft
Heat Index 76 °F
Dew Point 61 °F
Humidity 66%
Rainfall 0.00 in
Snow Depth Not available.
UV 3 out of 12
Pollen Not available.
Air Quality Not available.
Flu Activity Not available.
METAR ENGM 040850Z 04005KT 300V080 9999 BKN034 22/14 Q1021 NOSIG

More Conditions Fewer Conditions

10-Day Weather Forecast

×

Almanac

Astronomy

Jul. 04, 2015 Rise Set
Actual Time
Civil Twilight
Nautical Twilight
Astronomical Twilight
Moon
Length of Visible Light
Length of Day
Tomorrow will be .
, % of the Moon is Illuminated

Today's Extremes

Country Highs Country Lows

Community

WunderPhotos

Upload Photos

1,834,931 photos uploaded!

WunderBlogs® & News

Nearby

Air Quality

  Air Quality AQ Index Pollutant
Not available.

Snow Depth

Station Depth Elevation

Earthquake Activity

City Distance Mag. Time & Date
Minimum magnitude displayed is 2.5.

Coastal Water Temperatures

Place Temperature

Stations

Nearby Weather Stations

Station Location Temp. Windchill Dew Point Humidity Wind Precip. Elev Updated Type